Tokachi-Obihiro Airport Obihiro JP
ICAO: RJCB
IATA:
Category: Medium
Scheduled Services:

Elevation: 505 ft
TransAlt. 18000 ft.

Airport Communications:
SAPPORO CON:128.325
TWR:118.7

RJCB Zoom In..

If you have problems with the map follow the link
https://www.worldairports.se/pages/airport.php?
ICAO=RJCB

Runways:

(A) RW 17 length 8202 ft width 148 ft
---- / hdg 168

(B) RW 35 length 8202 ft width 148 ft
ILS 111.70 / hdg 348

Location; RJCB
Day. 22 / Time. 11.00 Zulu
* QNH: 1026
* Temperature: 09° c. 48.2°f.
* Wind from: VRB° Speed 01 kn.
Dewpoint: 07° c.
Visibility: 10 km or more.
Clouds: Few 1500 ft.
Clouds: Scattered 2000 ft.
Clouds: Broken 3500 ft.

RJCB 221100Z VRB01KT 9999 FEW015 SCT020 BKN035 09/07 Q1026


Wind From VRB°
Speed 01 kn.

 
 
jpsmedia.com for Web Design worldairports.se 2018   terms of use